sensor_id;sensor_type;location;lat;lon;timestamp;pressure;altitude;pressure_sealevel;temperature;humidity
10097;BME280;5087;42.662;23.466;2023-04-05T00:00:05;94902.34;;;-1.18;100.00
10097;BME280;5087;42.662;23.466;2023-04-05T00:02:36;94866.81;;;-1.29;100.00
10097;BME280;5087;42.662;23.466;2023-04-05T00:05:06;94917.44;;;-0.91;100.00
10097;BME280;5087;42.662;23.466;2023-04-05T00:07:34;94870.34;;;-1.23;100.00
10097;BME280;5087;42.662;23.466;2023-04-05T00:10:01;94910.72;;;-1.04;100.00
10097;BME280;5087;42.662;23.466;2023-04-05T00:12:29;94877.22;;;-1.27;100.00
10097;BME280;5087;42.662;23.466;2023-04-05T00:14:56;94850.56;;;-1.32;100.00
10097;BME280;5087;42.662;23.466;2023-04-05T00:17:25;94871.09;;;-1.28;100.00
10097;BME280;5087;42.662;23.466;2023-04-05T00:19:57;94826.69;;;-1.49;100.00
10097;BME280;5087;42.662;23.466;2023-04-05T00:22:25;94893.28;;;-1.17;100.00
10097;BME280;5087;42.662;23.466;2023-04-05T00:24:56;94902.44;;;-1.02;100.00
10097;BME280;5087;42.662;23.466;2023-04-05T00:27:23;94826.94;;;-1.56;100.00
10097;BME280;5087;42.662;23.466;2023-04-05T00:29:50;94914.47;;;-1.00;100.00
10097;BME280;5087;42.662;23.466;2023-04-05T00:32:20;94908.66;;;-0.91;100.00
10097;BME280;5087;42.662;23.466;2023-04-05T00:34:52;94826.16;;;-1.51;100.00
10097;BME280;5087;42.662;23.466;2023-04-05T00:37:20;94909.91;;;-0.99;100.00
10097;BME280;5087;42.662;23.466;2023-04-05T00:39:48;94874.25;;;-1.31;100.00
10097;BME280;5087;42.662;23.466;2023-04-05T00:42:15;94934.53;;;-0.87;100.00
10097;BME280;5087;42.662;23.466;2023-04-05T00:44:46;94913.41;;;-0.99;100.00
10097;BME280;5087;42.662;23.466;2023-04-05T00:47:13;94838.75;;;-1.41;100.00
10097;BME280;5087;42.662;23.466;2023-04-05T00:49:40;94858.00;;;-1.29;100.00
10097;BME280;5087;42.662;23.466;2023-04-05T00:52:11;94917.25;;;-0.84;100.00
10097;BME280;5087;42.662;23.466;2023-04-05T00:54:39;94890.50;;;-0.94;100.00
10097;BME280;5087;42.662;23.466;2023-04-05T00:57:08;94918.25;;;-0.90;100.00
10097;BME280;5087;42.662;23.466;2023-04-05T00:59:35;94880.28;;;-1.08;100.00
10097;BME280;5087;42.662;23.466;2023-04-05T01:02:07;94910.59;;;-0.82;100.00
10097;BME280;5087;42.662;23.466;2023-04-05T01:04:40;94920.75;;;-0.78;100.00
10097;BME280;5087;42.662;23.466;2023-04-05T01:07:23;94886.13;;;-1.11;100.00
10097;BME280;5087;42.662;23.466;2023-04-05T01:09:54;94895.91;;;-0.84;100.00
10097;BME280;5087;42.662;23.466;2023-04-05T01:12:23;94858.66;;;-1.17;100.00
10097;BME280;5087;42.662;23.466;2023-04-05T01:14:54;94858.09;;;-1.19;100.00
10097;BME280;5087;42.662;23.466;2023-04-05T01:17:23;94845.97;;;-1.37;100.00
10097;BME280;5087;42.662;23.466;2023-04-05T01:19:53;94866.81;;;-1.29;100.00
10097;BME280;5087;42.662;23.466;2023-04-05T01:28:39;94875.66;;;-1.23;100.00
10097;BME280;5087;42.662;23.466;2023-04-05T01:31:16;94905.41;;;-0.99;100.00
10097;BME280;5087;42.662;23.466;2023-04-05T01:33:51;94902.72;;;-1.04;100.00
10097;BME280;5087;42.662;23.466;2023-04-05T01:36:26;94878.56;;;-1.24;100.00
10097;BME280;5087;42.662;23.466;2023-04-05T01:38:57;94920.28;;;-1.03;100.00
10097;BME280;5087;42.662;23.466;2023-04-05T01:41:25;94896.84;;;-1.06;100.00
10097;BME280;5087;42.662;23.466;2023-04-05T01:43:52;94887.72;;;-1.10;100.00
10097;BME280;5087;42.662;23.466;2023-04-05T01:46:22;94921.25;;;-0.82;100.00
10097;BME280;5087;42.662;23.466;2023-04-05T01:48:49;94906.00;;;-0.91;100.00
10097;BME280;5087;42.662;23.466;2023-04-05T01:51:16;94938.56;;;-0.84;100.00
10097;BME280;5087;42.662;23.466;2023-04-05T01:53:44;94873.22;;;-1.24;100.00
10097;BME280;5087;42.662;23.466;2023-04-05T01:56:13;94941.19;;;-0.89;100.00
10097;BME280;5087;42.662;23.466;2023-04-05T01:58:40;94936.38;;;-0.87;100.00
10097;BME280;5087;42.662;23.466;2023-04-05T02:01:11;94894.34;;;-1.18;100.00
10097;BME280;5087;42.662;23.466;2023-04-05T02:03:40;94893.28;;;-1.17;100.00
10097;BME280;5087;42.662;23.466;2023-04-05T02:06:07;94897.75;;;-1.22;100.00
10097;BME280;5087;42.662;23.466;2023-04-05T02:08:36;94910.19;;;-1.01;100.00
10097;BME280;5087;42.662;23.466;2023-04-05T02:11:03;94905.91;;;-1.02;100.00
10097;BME280;5087;42.662;23.466;2023-04-05T02:13:31;94928.38;;;-0.92;100.00
10097;BME280;5087;42.662;23.466;2023-04-05T02:15:58;94904.53;;;-1.09;100.00
10097;BME280;5087;42.662;23.466;2023-04-05T02:18:26;94923.50;;;-1.01;100.00
10097;BME280;5087;42.662;23.466;2023-04-05T02:21:02;94898.84;;;-1.18;100.00
10097;BME280;5087;42.662;23.466;2023-04-05T02:23:31;94915.03;;;-0.92;100.00
10097;BME280;5087;42.662;23.466;2023-04-05T02:25:58;94947.25;;;-0.61;100.00
10097;BME280;5087;42.662;23.466;2023-04-05T02:28:26;94919.59;;;-0.93;100.00
10097;BME280;5087;42.662;23.466;2023-04-05T02:30:53;94949.53;;;-0.75;100.00
10097;BME280;5087;42.662;23.466;2023-04-05T02:33:29;94939.94;;;-0.76;100.00
10097;BME280;5087;42.662;23.466;2023-04-05T02:35:58;94921.41;;;-0.99;100.00
10097;BME280;5087;42.662;23.466;2023-04-05T02:38:27;94876.94;;;-1.25;100.00
10097;BME280;5087;42.662;23.466;2023-04-05T02:40:55;94946.59;;;-0.79;100.00
10097;BME280;5087;42.662;23.466;2023-04-05T02:43:22;94952.44;;;-0.82;100.00
10097;BME280;5087;42.662;23.466;2023-04-05T02:45:50;94919.28;;;-0.97;100.00
10097;BME280;5087;42.662;23.466;2023-04-05T02:48:18;94872.75;;;-1.21;100.00
10097;BME280;5087;42.662;23.466;2023-04-05T02:50:47;94911.81;;;-0.94;100.00
10097;BME280;5087;42.662;23.466;2023-04-05T02:53:15;94837.22;;;-1.32;100.00
10097;BME280;5087;42.662;23.466;2023-04-05T02:55:57;94923.06;;;-0.87;100.00
10097;BME280;5087;42.662;23.466;2023-04-05T02:58:27;94903.81;;;-1.00;100.00
10097;BME280;5087;42.662;23.466;2023-04-05T03:00:54;94922.75;;;-0.96;100.00
10097;BME280;5087;42.662;23.466;2023-04-05T03:03:32;94933.31;;;-0.74;100.00
10097;BME280;5087;42.662;23.466;2023-04-05T03:06:03;94896.38;;;-0.98;100.00
10097;BME280;5087;42.662;23.466;2023-04-05T03:08:40;94934.31;;;-0.80;100.00
10097;BME280;5087;42.662;23.466;2023-04-05T03:11:14;94902.19;;;-1.01;100.00
10097;BME280;5087;42.662;23.466;2023-04-05T03:13:46;94926.31;;;-0.80;100.00
10097;BME280;5087;42.662;23.466;2023-04-05T03:16:34;94936.00;;;-0.69;100.00
10097;BME280;5087;42.662;23.466;2023-04-05T03:19:09;94928.47;;;-0.77;100.00
10097;BME280;5087;42.662;23.466;2023-04-05T03:21:40;94872.00;;;-1.12;100.00
10097;BME280;5087;42.662;23.466;2023-04-05T03:24:21;94912.34;;;-0.98;100.00
10097;BME280;5087;42.662;23.466;2023-04-05T03:26:50;94943.91;;;-0.79;100.00
10097;BME280;5087;42.662;23.466;2023-04-05T03:29:21;94925.78;;;-0.82;100.00
10097;BME280;5087;42.662;23.466;2023-04-05T03:31:50;94924.72;;;-0.81;100.00
10097;BME280;5087;42.662;23.466;2023-04-05T03:34:21;94906.47;;;-1.00;100.00
10097;BME280;5087;42.662;23.466;2023-04-05T03:36:56;94941.88;;;-0.67;100.00
10097;BME280;5087;42.662;23.466;2023-04-05T03:39:37;94936.50;;;-0.72;100.00
10097;BME280;5087;42.662;23.466;2023-04-05T03:42:06;94941.25;;;-0.79;100.00
10097;BME280;5087;42.662;23.466;2023-04-05T03:44:36;94941.00;;;-0.77;100.00
10097;BME280;5087;42.662;23.466;2023-04-05T03:47:04;94869.47;;;-1.29;100.00
10097;BME280;5087;42.662;23.466;2023-04-05T03:49:32;94939.16;;;-0.72;100.00
10097;BME280;5087;42.662;23.466;2023-04-05T03:51:59;94934.25;;;-0.90;100.00
10097;BME280;5087;42.662;23.466;2023-04-05T03:54:26;94952.66;;;-0.89;100.00
10097;BME280;5087;42.662;23.466;2023-04-05T03:56:56;94932.56;;;-1.02;100.00
10097;BME280;5087;42.662;23.466;2023-04-05T03:59:26;94915.25;;;-0.99;100.00
10097;BME280;5087;42.662;23.466;2023-04-05T04:01:53;94934.16;;;-1.01;100.00
10097;BME280;5087;42.662;23.466;2023-04-05T04:04:23;94945.41;;;-0.93;100.00
10097;BME280;5087;42.662;23.466;2023-04-05T04:06:51;94944.31;;;-0.98;100.00
10097;BME280;5087;42.662;23.466;2023-04-05T04:09:23;94932.63;;;-0.97;100.00
10097;BME280;5087;42.662;23.466;2023-04-05T04:11:53;94957.66;;;-0.98;100.00
10097;BME280;5087;42.662;23.466;2023-04-05T04:14:23;94928.66;;;-1.21;100.00
10097;BME280;5087;42.662;23.466;2023-04-05T04:17:31;94972.06;;;-1.21;100.00
10097;BME280;5087;42.662;23.466;2023-04-05T04:20:14;94961.03;;;-1.35;100.00
10097;BME280;5087;42.662;23.466;2023-04-05T04:22:57;94950.31;;;-1.40;100.00
10097;BME280;5087;42.662;23.466;2023-04-05T04:25:49;94961.41;;;-1.48;100.00
10097;BME280;5087;42.662;23.466;2023-04-05T04:28:42;94963.56;;;-1.50;100.00
10097;BME280;5087;42.662;23.466;2023-04-05T04:31:33;94987.09;;;-1.37;100.00
10097;BME280;5087;42.662;23.466;2023-04-05T04:34:22;94947.41;;;-1.66;100.00
10097;BME280;5087;42.662;23.466;2023-04-05T04:37:07;94968.06;;;-1.51;100.00
10097;BME280;5087;42.662;23.466;2023-04-05T04:40:06;94963.47;;;-1.55;100.00
10097;BME280;5087;42.662;23.466;2023-04-05T04:42:55;94971.47;;;-1.55;100.00
10097;BME280;5087;42.662;23.466;2023-04-05T04:45:52;94992.56;;;-1.49;100.00
10097;BME280;5087;42.662;23.466;2023-04-05T04:48:33;94973.06;;;-1.54;100.00
10097;BME280;5087;42.662;23.466;2023-04-05T04:51:22;94962.31;;;-1.65;100.00
10097;BME280;5087;42.662;23.466;2023-04-05T04:53:51;94993.19;;;-1.41;100.00
10097;BME280;5087;42.662;23.466;2023-04-05T04:56:18;94965.03;;;-1.60;100.00
10097;BME280;5087;42.662;23.466;2023-04-05T04:58:47;94994.13;;;-1.25;100.00
10097;BME280;5087;42.662;23.466;2023-04-05T05:01:15;94965.75;;;-1.42;100.00
10097;BME280;5087;42.662;23.466;2023-04-05T05:03:46;94997.16;;;-1.17;100.00
10097;BME280;5087;42.662;23.466;2023-04-05T05:06:19;94981.41;;;-1.18;100.00
10097;BME280;5087;42.662;23.466;2023-04-05T05:08:48;95001.28;;;-1.04;100.00
10097;BME280;5087;42.662;23.466;2023-04-05T05:11:15;94975.09;;;-1.12;100.00
10097;BME280;5087;42.662;23.466;2023-04-05T05:13:44;94986.09;;;-1.03;100.00
10097;BME280;5087;42.662;23.466;2023-04-05T05:16:19;94956.91;;;-1.20;100.00
10097;BME280;5087;42.662;23.466;2023-04-05T05:19:07;94966.34;;;-1.07;100.00
10097;BME280;5087;42.662;23.466;2023-04-05T05:21:47;95011.06;;;-0.82;100.00
10097;BME280;5087;42.662;23.466;2023-04-05T05:24:19;95002.22;;;-0.88;100.00
10097;BME280;5087;42.662;23.466;2023-04-05T05:26:47;94976.88;;;-0.90;100.00
10097;BME280;5087;42.662;23.466;2023-04-05T05:29:16;95001.84;;;-0.69;100.00
10097;BME280;5087;42.662;23.466;2023-04-05T05:31:44;95018.69;;;-0.64;100.00
10097;BME280;5087;42.662;23.466;2023-04-05T05:34:14;94994.34;;;-0.72;100.00
10097;BME280;5087;42.662;23.466;2023-04-05T05:36:48;94961.53;;;-0.78;100.00
10097;BME280;5087;42.662;23.466;2023-04-05T05:39:16;94962.56;;;-0.79;100.00
10097;BME280;5087;42.662;23.466;2023-04-05T05:41:50;95008.78;;;-0.36;100.00
10097;BME280;5087;42.662;23.466;2023-04-05T05:44:17;94919.28;;;-0.97;100.00
10097;BME280;5087;42.662;23.466;2023-04-05T05:46:45;94947.13;;;-0.77;100.00
10097;BME280;5087;42.662;23.466;2023-04-05T05:49:13;94931.16;;;-0.72;100.00
10097;BME280;5087;42.662;23.466;2023-04-05T05:51:40;94986.19;;;-0.60;100.00
10097;BME280;5087;42.662;23.466;2023-04-05T05:54:08;94989.69;;;-0.55;100.00
10097;BME280;5087;42.662;23.466;2023-04-05T05:56:40;94954.06;;;-0.76;100.00
10097;BME280;5087;42.662;23.466;2023-04-05T05:59:09;95002.31;;;-0.40;100.00
10097;BME280;5087;42.662;23.466;2023-04-05T06:01:37;94991.19;;;-0.26;100.00
10097;BME280;5087;42.662;23.466;2023-04-05T06:04:10;94995.56;;;-0.15;100.00
10097;BME280;5087;42.662;23.466;2023-04-05T06:06:41;94959.00;;;-0.57;100.00
10097;BME280;5087;42.662;23.466;2023-04-05T06:09:11;95028.69;;;-0.06;100.00
10097;BME280;5087;42.662;23.466;2023-04-05T06:11:38;94986.78;;;-0.05;100.00
10097;BME280;5087;42.662;23.466;2023-04-05T06:14:05;95010.31;;;0.03;100.00
10097;BME280;5087;42.662;23.466;2023-04-05T06:16:34;94998.38;;;0.16;100.00
10097;BME280;5087;42.662;23.466;2023-04-05T06:19:01;94969.91;;;-0.21;100.00
10097;BME280;5087;42.662;23.466;2023-04-05T06:21:29;94960.31;;;-0.17;100.00
10097;BME280;5087;42.662;23.466;2023-04-05T06:23:56;94945.63;;;-0.25;100.00
10097;BME280;5087;42.662;23.466;2023-04-05T06:26:24;95021.50;;;0.48;100.00
10097;BME280;5087;42.662;23.466;2023-04-05T06:28:53;95022.47;;;0.31;100.00
10097;BME280;5087;42.662;23.466;2023-04-05T06:31:25;95016.16;;;0.48;100.00
10097;BME280;5087;42.662;23.466;2023-04-05T06:33:57;95014.59;;;0.62;100.00
10097;BME280;5087;42.662;23.466;2023-04-05T06:36:29;94993.94;;;0.42;100.00
10097;BME280;5087;42.662;23.466;2023-04-05T06:38:57;95022.00;;;0.50;100.00
10097;BME280;5087;42.662;23.466;2023-04-05T06:41:24;94981.88;;;0.35;100.00
10097;BME280;5087;42.662;23.466;2023-04-05T06:43:52;94976.81;;;0.23;100.00
10097;BME280;5087;42.662;23.466;2023-04-05T06:46:19;95024.69;;;0.50;100.00
10097;BME280;5087;42.662;23.466;2023-04-05T06:48:47;95017.19;;;0.42;100.00
10097;BME280;5087;42.662;23.466;2023-04-05T06:51:16;94947.66;;;0.11;100.00
10097;BME280;5087;42.662;23.466;2023-04-05T06:53:47;95031.13;;;0.59;100.00
10097;BME280;5087;42.662;23.466;2023-04-05T06:56:14;94971.19;;;0.19;100.00
10097;BME280;5087;42.662;23.466;2023-04-05T06:58:41;95032.78;;;0.76;100.00
10097;BME280;5087;42.662;23.466;2023-04-05T07:01:11;94975.69;;;0.19;100.00
10097;BME280;5087;42.662;23.466;2023-04-05T07:03:38;95024.13;;;0.43;100.00
10097;BME280;5087;42.662;23.466;2023-04-05T07:06:06;94972.81;;;0.30;100.00
10097;BME280;5087;42.662;23.466;2023-04-05T07:08:37;95055.22;;;0.70;100.00
10097;BME280;5087;42.662;23.466;2023-04-05T07:11:15;95011.66;;;0.59;100.00
10097;BME280;5087;42.662;23.466;2023-04-05T07:13:44;95050.47;;;0.92;100.00
10097;BME280;5087;42.662;23.466;2023-04-05T07:16:12;95024.31;;;0.94;100.00
10097;BME280;5087;42.662;23.466;2023-04-05T07:18:40;95038.25;;;1.22;100.00
10097;BME280;5087;42.662;23.466;2023-04-05T07:21:07;95021.63;;;1.05;100.00
10097;BME280;5087;42.662;23.466;2023-04-05T07:23:34;95042.81;;;1.48;100.00
10097;BME280;5087;42.662;23.466;2023-04-05T07:26:06;95012.28;;;1.07;100.00
10097;BME280;5087;42.662;23.466;2023-04-05T07:28:33;95035.81;;;1.05;100.00
10097;BME280;5087;42.662;23.466;2023-04-05T07:31:02;95026.72;;;1.12;100.00
10097;BME280;5087;42.662;23.466;2023-04-05T07:33:29;95013.81;;;0.77;100.00
10097;BME280;5087;42.662;23.466;2023-04-05T07:35:57;95025.56;;;0.71;100.00
10097;BME280;5087;42.662;23.466;2023-04-05T07:38:25;95060.38;;;0.92;100.00
10097;BME280;5087;42.662;23.466;2023-04-05T07:40:53;95081.78;;;0.97;100.00
10097;BME280;5087;42.662;23.466;2023-04-05T07:43:26;95026.06;;;0.63;100.00
10097;BME280;5087;42.662;23.466;2023-04-05T07:46:00;95053.38;;;0.81;100.00
10097;BME280;5087;42.662;23.466;2023-04-05T07:48:28;95066.50;;;0.87;100.00
10097;BME280;5087;42.662;23.466;2023-04-05T07:50:56;95049.94;;;0.90;100.00
10097;BME280;5087;42.662;23.466;2023-04-05T07:53:23;95058.81;;;1.06;100.00
10097;BME280;5087;42.662;23.466;2023-04-05T07:55:50;95060.06;;;0.78;100.00
10097;BME280;5087;42.662;23.466;2023-04-05T07:58:21;95084.44;;;0.92;100.00
10097;BME280;5087;42.662;23.466;2023-04-05T08:00:50;95036.81;;;0.78;100.00
10097;BME280;5087;42.662;23.466;2023-04-05T08:03:18;95096.22;;;1.01;100.00
10097;BME280;5087;42.662;23.466;2023-04-05T08:05:45;95084.69;;;0.90;100.00
10097;BME280;5087;42.662;23.466;2023-04-05T08:08:15;95053.94;;;0.83;100.00
10097;BME280;5087;42.662;23.466;2023-04-05T08:10:43;95090.09;;;1.16;100.00
10097;BME280;5087;42.662;23.466;2023-04-05T08:13:10;95087.44;;;1.11;100.00
10097;BME280;5087;42.662;23.466;2023-04-05T08:15:39;95057.66;;;0.82;100.00
10097;BME280;5087;42.662;23.466;2023-04-05T08:18:08;95106.16;;;1.21;100.00
10097;BME280;5087;42.662;23.466;2023-04-05T08:20:37;95088.22;;;1.17;100.00
10097;BME280;5087;42.662;23.466;2023-04-05T08:23:05;95041.88;;;0.75;100.00
10097;BME280;5087;42.662;23.466;2023-04-05T08:25:32;95094.63;;;1.16;100.00
10097;BME280;5087;42.662;23.466;2023-04-05T08:27:59;95120.88;;;1.24;100.00
10097;BME280;5087;42.662;23.466;2023-04-05T08:30:32;95090.59;;;0.98;100.00
10097;BME280;5087;42.662;23.466;2023-04-05T08:33:00;95071.31;;;0.90;100.00
10097;BME280;5087;42.662;23.466;2023-04-05T08:35:28;95057.94;;;0.90;100.00
10097;BME280;5087;42.662;23.466;2023-04-05T08:37:56;95091.72;;;1.22;100.00
10097;BME280;5087;42.662;23.466;2023-04-05T08:40:32;95091.16;;;1.15;100.00
10097;BME280;5087;42.662;23.466;2023-04-05T08:43:09;95062.22;;;0.91;100.00
10097;BME280;5087;42.662;23.466;2023-04-05T08:45:42;95104.03;;;1.29;100.00
10097;BME280;5087;42.662;23.466;2023-04-05T08:48:14;95075.59;;;0.97;100.00
10097;BME280;5087;42.662;23.466;2023-04-05T08:50:49;95109.06;;;1.04;100.00
10097;BME280;5087;42.662;23.466;2023-04-05T08:53:17;95135.56;;;1.21;100.00
10097;BME280;5087;42.662;23.466;2023-04-05T08:55:46;95135.59;;;1.32;100.00
10097;BME280;5087;42.662;23.466;2023-04-05T08:58:15;95098.16;;;1.37;100.00
10097;BME280;5087;42.662;23.466;2023-04-05T09:00:44;95046.19;;;0.91;100.00
10097;BME280;5087;42.662;23.466;2023-04-05T09:03:15;95097.63;;;1.35;100.00
10097;BME280;5087;42.662;23.466;2023-04-05T09:05:47;95071.41;;;1.21;100.00
10097;BME280;5087;42.662;23.466;2023-04-05T09:08:18;95111.53;;;1.37;100.00
10097;BME280;5087;42.662;23.466;2023-04-05T09:10:48;95097.38;;;1.47;100.00
10097;BME280;5087;42.662;23.466;2023-04-05T09:13:19;95107.81;;;1.33;100.00
10097;BME280;5087;42.662;23.466;2023-04-05T09:15:46;95068.22;;;1.50;100.00
10097;BME280;5087;42.662;23.466;2023-04-05T09:18:14;95077.28;;;1.29;100.00
10097;BME280;5087;42.662;23.466;2023-04-05T09:20:42;95110.78;;;1.57;100.00
10097;BME280;5087;42.662;23.466;2023-04-05T09:23:13;95113.72;;;1.61;100.00
10097;BME280;5087;42.662;23.466;2023-04-05T09:25:48;95052.44;;;1.49;100.00
10097;BME280;5087;42.662;23.466;2023-04-05T09:28:17;95096.06;;;1.85;100.00
10097;BME280;5087;42.662;23.466;2023-04-05T09:30:47;95099.00;;;1.53;100.00
10097;BME280;5087;42.662;23.466;2023-04-05T09:33:18;95115.59;;;1.65;100.00
10097;BME280;5087;42.662;23.466;2023-04-05T09:35:59;95050.56;;;1.34;100.00
10097;BME280;5087;42.662;23.466;2023-04-05T09:38:51;95149.63;;;1.85;100.00
10097;BME280;5087;42.662;23.466;2023-04-05T09:41:26;95050.03;;;1.47;100.00
10097;BME280;5087;42.662;23.466;2023-04-05T09:43:54;95086.97;;;1.55;100.00
10097;BME280;5087;42.662;23.466;2023-04-05T09:46:29;95124.44;;;1.92;100.00
10097;BME280;5087;42.662;23.466;2023-04-05T09:48:57;95065.53;;;1.30;100.00
10097;BME280;5087;42.662;23.466;2023-04-05T09:51:31;95065.03;;;1.69;100.00
10097;BME280;5087;42.662;23.466;2023-04-05T09:54:03;95081.56;;;1.35;100.00
10097;BME280;5087;42.662;23.466;2023-04-05T09:56:31;95094.97;;;1.40;100.00
10097;BME280;5087;42.662;23.466;2023-04-05T09:58:59;95118.03;;;1.87;100.00
10097;BME280;5087;42.662;23.466;2023-04-05T10:01:31;95106.78;;;2.01;100.00
10097;BME280;5087;42.662;23.466;2023-04-05T10:03:59;95081.59;;;2.17;100.00
10097;BME280;5087;42.662;23.466;2023-04-05T10:06:37;95093.38;;;2.21;100.00
10097;BME280;5087;42.662;23.466;2023-04-05T10:09:16;95114.50;;;2.38;100.00
10097;BME280;5087;42.662;23.466;2023-04-05T10:11:48;95067.56;;;2.62;100.00
10097;BME280;5087;42.662;23.466;2023-04-05T10:14:19;95094.41;;;2.31;100.00
10097;BME280;5087;42.662;23.466;2023-04-05T10:16:51;95108.28;;;2.64;100.00
10097;BME280;5087;42.662;23.466;2023-04-05T10:19:26;95112.25;;;2.82;100.00
10097;BME280;5087;42.662;23.466;2023-04-05T10:21:59;95112.06;;;2.52;100.00
10097;BME280;5087;42.662;23.466;2023-04-05T10:24:33;95114.47;;;2.54;100.00
10097;BME280;5087;42.662;23.466;2023-04-05T10:27:05;95017.91;;;1.88;100.00
10097;BME280;5087;42.662;23.466;2023-04-05T10:29:46;95100.31;;;2.22;100.00
10097;BME280;5087;42.662;23.466;2023-04-05T10:32:22;95070.38;;;2.10;100.00
10097;BME280;5087;42.662;23.466;2023-04-05T10:34:59;95051.03;;;2.29;100.00
10097;BME280;5087;42.662;23.466;2023-04-05T10:37:40;95092.69;;;2.76;100.00
10097;BME280;5087;42.662;23.466;2023-04-05T10:40:16;95101.84;;;2.70;100.00
10097;BME280;5087;42.662;23.466;2023-04-05T10:43:00;95094.72;;;2.29;100.00
10097;BME280;5087;42.662;23.466;2023-04-05T10:45:30;95094.38;;;2.57;100.00
10097;BME280;5087;42.662;23.466;2023-04-05T10:48:07;95102.94;;;2.53;100.00
10097;BME280;5087;42.662;23.466;2023-04-05T10:50:40;95095.25;;;2.16;100.00
10097;BME280;5087;42.662;23.466;2023-04-05T10:53:17;95087.47;;;2.04;100.00
10097;BME280;5087;42.662;23.466;2023-04-05T10:55:48;95107.25;;;2.34;100.00
10097;BME280;5087;42.662;23.466;2023-04-05T10:58:17;95118.28;;;2.27;100.00
10097;BME280;5087;42.662;23.466;2023-04-05T11:00:46;95063.69;;;1.97;100.00
10097;BME280;5087;42.662;23.466;2023-04-05T11:03:45;95069.56;;;1.89;100.00
10097;BME280;5087;42.662;23.466;2023-04-05T11:06:21;95025.97;;;1.78;100.00
10097;BME280;5087;42.662;23.466;2023-04-05T11:08:56;95037.22;;;1.65;100.00
10097;BME280;5087;42.662;23.466;2023-04-05T11:11:25;95075.66;;;2.31;100.00
10097;BME280;5087;42.662;23.466;2023-04-05T11:13:54;95080.81;;;2.07;100.00
10097;BME280;5087;42.662;23.466;2023-04-05T11:16:23;95108.91;;;2.14;100.00
10097;BME280;5087;42.662;23.466;2023-04-05T11:19:10;95118.00;;;2.18;100.00
10097;BME280;5087;42.662;23.466;2023-04-05T11:21:42;95027.56;;;1.48;100.00
10097;BME280;5087;42.662;23.466;2023-04-05T11:24:18;95057.00;;;1.84;100.00
10097;BME280;5087;42.662;23.466;2023-04-05T11:26:54;95118.03;;;2.03;100.00
10097;BME280;5087;42.662;23.466;2023-04-05T11:29:47;95114.22;;;2.35;100.00
10097;BME280;5087;42.662;23.466;2023-04-05T11:32:19;95097.34;;;2.50;100.00
10097;BME280;5087;42.662;23.466;2023-04-05T11:34:58;95113.06;;;2.72;100.00
10097;BME280;5087;42.662;23.466;2023-04-05T11:38:04;95112.50;;;2.85;100.00
10097;BME280;5087;42.662;23.466;2023-04-05T11:40:35;95112.72;;;2.94;100.00
10097;BME280;5087;42.662;23.466;2023-04-05T11:43:07;95099.84;;;2.96;100.00
10097;BME280;5087;42.662;23.466;2023-04-05T11:45:36;95040.69;;;2.77;100.00
10097;BME280;5087;42.662;23.466;2023-04-05T11:48:09;95113.13;;;3.22;100.00
10097;BME280;5087;42.662;23.466;2023-04-05T11:50:40;95079.66;;;2.49;100.00
10097;BME280;5087;42.662;23.466;2023-04-05T11:53:09;95075.53;;;2.77;100.00
10097;BME280;5087;42.662;23.466;2023-04-05T11:55:37;95112.44;;;2.96;100.00
10097;BME280;5087;42.662;23.466;2023-04-05T11:58:17;95117.31;;;2.94;100.00
10097;BME280;5087;42.662;23.466;2023-04-05T12:01:00;95061.13;;;2.63;100.00
10097;BME280;5087;42.662;23.466;2023-04-05T12:03:32;95076.13;;;2.64;100.00
10097;BME280;5087;42.662;23.466;2023-04-05T12:06:04;95081.81;;;2.42;100.00
10097;BME280;5087;42.662;23.466;2023-04-05T12:08:37;95106.56;;;2.94;100.00
10097;BME280;5087;42.662;23.466;2023-04-05T12:11:06;95118.75;;;3.31;100.00
10097;BME280;5087;42.662;23.466;2023-04-05T12:13:36;95115.34;;;3.10;100.00
10097;BME280;5087;42.662;23.466;2023-04-05T12:16:05;95098.97;;;3.11;100.00
10097;BME280;5087;42.662;23.466;2023-04-05T12:18:33;95066.19;;;2.64;100.00
10097;BME280;5087;42.662;23.466;2023-04-05T12:21:01;95092.19;;;2.59;100.00
10097;BME280;5087;42.662;23.466;2023-04-05T12:23:30;95077.28;;;2.27;100.00
10097;BME280;5087;42.662;23.466;2023-04-05T12:26:01;95086.31;;;2.62;100.00
10097;BME280;5087;42.662;23.466;2023-04-05T12:28:53;95109.44;;;2.32;100.00
10097;BME280;5087;42.662;23.466;2023-04-05T12:31:37;95118.97;;;2.74;100.00
10097;BME280;5087;42.662;23.466;2023-04-05T12:34:05;95107.47;;;2.63;100.00
10097;BME280;5087;42.662;23.466;2023-04-05T12:36:33;95029.06;;;2.32;100.00
10097;BME280;5087;42.662;23.466;2023-04-05T12:39:00;95067.03;;;2.49;100.00
10097;BME280;5087;42.662;23.466;2023-04-05T12:41:35;95017.84;;;2.19;100.00
10097;BME280;5087;42.662;23.466;2023-04-05T12:44:10;95033.06;;;2.34;100.00
10097;BME280;5087;42.662;23.466;2023-04-05T12:46:42;95079.66;;;2.38;100.00
10097;BME280;5087;42.662;23.466;2023-04-05T12:49:12;95035.59;;;1.84;100.00
10097;BME280;5087;42.662;23.466;2023-04-05T12:51:46;95033.31;;;2.38;100.00
10097;BME280;5087;42.662;23.466;2023-04-05T12:54:17;95048.53;;;2.58;100.00
10097;BME280;5087;42.662;23.466;2023-04-05T12:56:48;95092.16;;;2.74;100.00
10097;BME280;5087;42.662;23.466;2023-04-05T12:59:19;95047.50;;;2.44;100.00
10097;BME280;5087;42.662;23.466;2023-04-05T13:01:47;95106.44;;;3.20;100.00
10097;BME280;5087;42.662;23.466;2023-04-05T13:04:14;95110.97;;;2.64;100.00
10097;BME280;5087;42.662;23.466;2023-04-05T13:06:42;95135.00;;;2.90;100.00
10097;BME280;5087;42.662;23.466;2023-04-05T13:09:14;95140.25;;;3.21;100.00
10097;BME280;5087;42.662;23.466;2023-04-05T13:11:42;95112.88;;;3.24;100.00
10097;BME280;5087;42.662;23.466;2023-04-05T13:14:11;95136.38;;;3.42;100.00
10097;BME280;5087;42.662;23.466;2023-04-05T13:16:40;95101.28;;;2.78;100.00
10097;BME280;5087;42.662;23.466;2023-04-05T13:19:07;95070.47;;;2.65;100.00
10097;BME280;5087;42.662;23.466;2023-04-05T13:21:35;95110.63;;;2.81;100.00
10097;BME280;5087;42.662;23.466;2023-04-05T13:24:03;95079.66;;;2.49;100.00